Time;durP1;ratioP1;P1;durP2;ratioP2;P2;SDS_P1;SDS_P2;PMS_P1;PMS_P2;Temp;Humidity;BMP_temperature;BMP_pressure;BME280_temperature;BME280_humidity;BME280_pressure;Samples;Min_cycle;Max_cycle;Signal;HPM_P1;HPM_P2
2021/11/09 00:01:01;;;;;;;14.23;7.25;;;9.00;99.90;;;;;;4909828;29;20087;-64
2021/11/09 00:03:28;;;;;;;15.90;7.25;;;9.00;99.90;;;;;;4887102;29;20053;-64
2021/11/09 00:06:10;;;;;;;15.50;7.50;;;8.90;99.90;;;;;;4908742;29;20046;-64
2021/11/09 00:08:42;;;;;;;15.13;7.20;;;9.00;99.90;;;;;;4902730;29;20053;-64
2021/11/09 00:11:08;;;;;;;11.73;6.72;;;9.00;99.90;;;;;;4923318;29;20108;-64
2021/11/09 00:13:34;;;;;;;15.00;6.88;;;9.00;99.90;;;;;;4907817;29;20087;-64
2021/11/09 00:16:00;;;;;;;12.48;6.57;;;8.90;99.90;;;;;;4922804;29;20084;-64
2021/11/09 00:18:25;;;;;;;12.85;7.63;;;8.90;99.90;;;;;;4906530;29;20123;-64
2021/11/09 00:20:51;;;;;;;13.15;6.70;;;8.90;99.90;;;;;;4908557;29;20045;-64
2021/11/09 00:23:17;;;;;;;13.82;6.38;;;8.90;99.90;;;;;;4905687;29;20506;-64
2021/11/09 00:25:43;;;;;;;16.50;7.55;;;8.90;99.90;;;;;;4923566;29;20056;-64
2021/11/09 00:28:11;;;;;;;12.68;6.60;;;8.80;99.90;;;;;;4904097;29;20080;-64
2021/11/09 00:30:37;;;;;;;14.07;7.50;;;8.80;99.90;;;;;;4906182;29;20056;-64
2021/11/09 00:33:04;;;;;;;13.90;6.75;;;8.90;99.90;;;;;;4908643;29;20044;-64
2021/11/09 00:35:32;;;;;;;15.57;6.97;;;8.90;99.90;;;;;;4909161;29;20047;-64
2021/11/09 00:38:00;;;;;;;17.27;6.78;;;8.90;99.90;;;;;;4923294;29;20053;-64
2021/11/09 00:40:29;;;;;;;16.70;6.47;;;8.90;99.90;;;;;;4888693;29;20051;-64
2021/11/09 00:42:55;;;;;;;13.37;6.33;;;8.90;99.90;;;;;;4908892;29;20048;-64
2021/11/09 00:45:21;;;;;;;19.45;6.22;;;8.90;99.90;;;;;;4908178;29;20289;-64
2021/11/09 00:47:47;;;;;;;14.30;6.30;;;8.90;99.90;;;;;;4908705;29;20113;-64
2021/11/09 00:50:16;;;;;;;13.55;6.57;;;9.00;99.90;;;;;;4908674;29;20051;-64
2021/11/09 00:52:43;;;;;;;16.70;6.80;;;8.90;99.90;;;;;;4917575;29;20052;-64
2021/11/09 00:55:09;;;;;;;13.80;6.30;;;8.90;99.90;;;;;;4909002;29;20050;-64
2021/11/09 00:57:35;;;;;;;14.45;6.63;;;8.90;99.90;;;;;;4909372;29;20055;-64
2021/11/09 01:00:04;;;;;;;13.57;6.70;;;8.90;99.90;;;;;;4909238;29;20053;-64
2021/11/09 01:02:30;;;;;;;12.88;6.72;;;8.90;99.90;;;;;;4908085;29;20482;-64
2021/11/09 01:04:56;;;;;;;14.40;6.30;;;8.90;99.90;;;;;;4905275;29;20082;-64
2021/11/09 01:07:22;;;;;;;14.65;6.80;;;8.90;99.90;;;;;;4908531;29;20123;-64
2021/11/09 01:09:47;;;;;;;15.52;6.68;;;8.90;99.90;;;;;;4908608;29;20053;-63
2021/11/09 01:12:13;;;;;;;18.40;7.30;;;8.80;99.90;;;;;;4908848;29;20041;-64
2021/11/09 01:14:40;;;;;;;13.38;6.78;;;8.70;99.90;;;;;;4910195;29;20079;-64
2021/11/09 01:17:07;;;;;;;19.80;7.03;;;8.70;99.90;;;;;;4894717;29;20060;-64
2021/11/09 01:19:33;;;;;;;14.45;6.82;;;8.70;99.90;;;;;;4911632;29;20079;-64
2021/11/09 01:22:01;;;;;;;13.60;7.68;;;8.60;99.90;;;;;;4911942;29;20048;-64
2021/11/09 01:24:27;;;;;;;12.55;6.45;;;8.70;99.90;;;;;;4913556;29;20052;-64
2021/11/09 01:26:53;;;;;;;14.18;7.15;;;8.70;99.90;;;;;;4911420;29;20072;-64
2021/11/09 01:29:19;;;;;;;17.08;7.25;;;8.70;99.90;;;;;;4910169;29;20064;-64
2021/11/09 01:31:45;;;;;;;10.95;6.93;;;8.70;99.90;;;;;;4926893;29;20053;-64
2021/11/09 01:34:11;;;;;;;17.23;7.57;;;8.60;99.90;;;;;;4895096;29;20145;-64
2021/11/09 01:36:37;;;;;;;14.57;7.20;;;8.80;99.90;;;;;;4911411;29;20039;-64
2021/11/09 01:39:05;;;;;;;13.80;7.32;;;8.80;99.90;;;;;;4925699;29;20045;-64
2021/11/09 01:41:31;;;;;;;18.98;8.57;;;8.80;99.90;;;;;;4911896;29;20045;-64
2021/11/09 01:43:58;;;;;;;14.45;7.15;;;8.70;99.90;;;;;;4911468;29;20057;-64
2021/11/09 01:46:23;;;;;;;20.13;8.63;;;8.60;99.90;;;;;;4925536;29;20063;-64
2021/11/09 01:48:49;;;;;;;17.92;8.63;;;8.60;99.90;;;;;;4911915;29;20052;-64
2021/11/09 01:51:18;;;;;;;16.95;8.27;;;8.60;99.90;;;;;;4894128;29;20076;-64
2021/11/09 01:53:48;;;;;;;15.90;8.45;;;8.50;99.90;;;;;;4911162;29;20053;-64
2021/11/09 01:56:16;;;;;;;19.27;8.43;;;8.50;99.90;;;;;;4910383;29;20053;-64
2021/11/09 01:58:42;;;;;;;19.45;8.73;;;8.50;99.90;;;;;;4911283;29;20051;-64
2021/11/09 02:01:13;;;;;;;15.50;8.25;;;8.40;99.90;;;;;;4910938;29;20037;-64
2021/11/09 02:03:42;;;;;;;22.45;9.05;;;8.30;99.90;;;;;;4910946;29;20087;-64
2021/11/09 02:06:08;;;;;;;18.90;9.32;;;8.40;99.90;;;;;;4909945;29;20080;-65
2021/11/09 02:08:35;;;;;;;15.40;8.57;;;8.30;99.90;;;;;;4910845;29;20063;-64
2021/11/09 02:11:01;;;;;;;22.30;9.68;;;8.30;99.90;;;;;;4911031;29;20055;-64
2021/11/09 02:13:27;;;;;;;20.02;8.57;;;8.30;99.90;;;;;;4911488;29;20383;-64
2021/11/09 02:15:53;;;;;;;20.98;8.75;;;8.20;99.90;;;;;;4911055;29;20036;-64
2021/11/09 02:18:20;;;;;;;18.45;8.82;;;8.10;99.90;;;;;;4910475;29;20596;-64
2021/11/09 02:21:11;;;;;;;22.42;9.82;;;8.10;99.90;;;;;;4924944;29;20506;-64
2021/11/09 02:23:41;;;;;;;22.55;9.45;;;8.10;99.90;;;;;;4885207;29;20458;-64
2021/11/09 02:26:09;;;;;;;19.23;10.13;;;8.10;99.90;;;;;;4892380;29;20406;-64
2021/11/09 02:28:34;;;;;;;19.55;9.50;;;8.10;99.90;;;;;;4893310;29;20502;-64
2021/11/09 02:31:01;;;;;;;21.92;9.07;;;8.10;99.90;;;;;;4893711;29;20044;-64
2021/11/09 02:33:27;;;;;;;15.98;9.95;;;8.10;99.90;;;;;;4910905;29;20097;-64
2021/11/09 02:35:53;;;;;;;20.40;9.07;;;8.10;99.90;;;;;;4924073;29;20048;-64
2021/11/09 02:38:20;;;;;;;22.13;9.85;;;8.20;99.90;;;;;;4910162;29;20116;-64
2021/11/09 02:40:46;;;;;;;21.40;10.15;;;8.20;99.90;;;;;;4909997;29;20490;-64
2021/11/09 02:43:14;;;;;;;18.38;9.60;;;8.20;99.90;;;;;;4910616;29;20051;-64
2021/11/09 02:46:37;;;;;;;21.40;9.90;;;8.40;99.90;;;;;;4910713;29;20057;-64
2021/11/09 02:48:43;;;;;;;20.42;9.55;;;8.20;99.90;;;;;;4886932;29;20056;-64
2021/11/09 02:51:12;;;;;;;21.88;9.77;;;8.20;99.90;;;;;;4908757;29;20045;-64
2021/11/09 03:01:43;;;;;;;20.27;8.57;;;8.30;99.90;;;;;;4847250;29;20066;-64
2021/11/09 03:04:26;;;;;;;;;;;8.10;99.90;;;;;;4863812;29;20050;-64
2021/11/09 03:07:01;;;;;;;16.67;9.45;;;8.10;99.90;;;;;;4866266;29;20063;-64
2021/11/09 03:12:01;;;;;;;18.08;10.10;;;8.10;99.90;;;;;;4847722;29;20068;-64
2021/11/09 03:14:27;;;;;;;18.30;10.38;;;8.10;99.90;;;;;;4852619;29;20057;-64
2021/11/09 03:16:56;;;;;;;20.20;9.02;;;8.00;99.90;;;;;;4869972;29;20045;-64
2021/11/09 03:46:37;;;;;;;18.67;8.93;;;7.80;99.90;;;;;;4909282;29;20577;-64
2021/11/09 03:49:05;;;;;;;26.40;9.82;;;7.80;99.90;;;;;;4904956;29;20087;-64
2021/11/09 03:51:33;;;;;;;20.15;9.85;;;7.80;99.90;;;;;;4892349;29;20049;-64
2021/11/09 03:54:01;;;;;;;20.50;9.20;;;7.90;99.90;;;;;;4909063;29;20055;-64
2021/11/09 03:56:36;;;;;;;24.48;9.70;;;7.90;99.90;;;;;;4908990;29;20056;-64
2021/11/09 03:59:06;;;;;;;19.05;9.10;;;8.10;99.90;;;;;;4921439;29;20508;-64
2021/11/09 04:01:40;;;;;;;21.77;9.50;;;8.00;99.90;;;;;;4909055;29;20037;-64
2021/11/09 04:04:26;;;;;;;21.02;9.35;;;8.00;99.90;;;;;;4892852;29;20080;-64
2021/11/09 04:07:04;;;;;;;18.60;9.23;;;8.00;99.90;;;;;;4889960;29;20063;-64
2021/11/09 04:20:05;;;;;;;22.30;9.43;;;7.60;99.90;;;;;;4892017;29;20060;-64
2021/11/09 04:49:32;;;;;;;23.15;10.10;;;7.50;99.90;;;;;;4909070;29;20166;-64
2021/11/09 05:10:31;;;;;;;22.40;10.77;;;7.00;99.90;;;;;;4911626;29;20457;-64
2021/11/09 05:12:57;;;;;;;27.40;12.48;;;7.10;99.90;;;;;;4910078;29;20056;-64
2021/11/09 05:15:24;;;;;;;35.72;13.27;;;7.10;99.90;;;;;;4911355;29;20104;-64
2021/11/09 05:17:50;;;;;;;20.73;11.75;;;7.00;99.90;;;;;;4895157;29;20430;-64
2021/11/09 05:20:16;;;;;;;23.85;12.05;;;7.00;99.90;;;;;;4910039;29;20037;-64
2021/11/09 05:22:42;;;;;;;26.15;12.43;;;7.10;99.90;;;;;;4895241;29;20056;-64
2021/11/09 05:25:08;;;;;;;25.92;12.82;;;7.10;99.90;;;;;;4913444;29;20052;-64
2021/11/09 05:27:34;;;;;;;31.95;13.65;;;7.10;99.90;;;;;;4912714;29;20033;-64
2021/11/09 05:30:00;;;;;;;24.85;12.70;;;6.90;99.90;;;;;;4925763;29;20395;-64
2021/11/09 05:32:25;;;;;;;24.65;12.63;;;6.90;99.90;;;;;;4912430;29;20045;-64
2021/11/09 05:34:52;;;;;;;31.38;14.52;;;6.80;99.90;;;;;;4912067;29;20048;-64
2021/11/09 05:37:22;;;;;;;29.55;15.45;;;6.80;99.90;;;;;;4891706;29;20112;-64
2021/11/09 05:39:51;;;;;;;27.23;13.40;;;6.70;99.90;;;;;;4925672;29;20053;-64
2021/11/09 05:42:17;;;;;;;29.23;14.07;;;6.80;99.90;;;;;;4911685;29;20127;-64
2021/11/09 05:44:43;;;;;;;26.17;13.20;;;7.10;99.90;;;;;;4902876;29;20060;-64
2021/11/09 05:47:12;;;;;;;24.33;13.10;;;7.30;99.90;;;;;;4911337;29;20139;-64
2021/11/09 05:49:38;;;;;;;29.20;15.43;;;7.30;99.90;;;;;;4908601;29;20049;-64
2021/11/09 05:52:05;;;;;;;23.90;13.68;;;7.20;99.90;;;;;;4894643;29;20053;-64
2021/11/09 05:54:31;;;;;;;26.45;14.18;;;7.20;99.90;;;;;;4910938;29;20161;-64
2021/11/09 05:56:57;;;;;;;27.02;13.90;;;7.20;99.90;;;;;;4911652;29;20041;-64
2021/11/09 05:59:22;;;;;;;25.95;13.55;;;7.20;99.90;;;;;;4910270;29;20040;-64
2021/11/09 06:01:48;;;;;;;26.17;13.90;;;7.20;99.90;;;;;;4910874;29;20119;-64
2021/11/09 06:04:14;;;;;;;31.02;13.82;;;7.00;99.90;;;;;;4890408;29;20053;-64
2021/11/09 06:06:41;;;;;;;29.48;13.60;;;7.10;99.90;;;;;;4911529;29;20060;-64
2021/11/09 06:09:06;;;;;;;26.30;14.02;;;7.10;99.90;;;;;;4925995;29;20088;-64
2021/11/09 06:11:33;;;;;;;27.40;13.73;;;7.00;99.90;;;;;;4907871;29;20395;-64
2021/11/09 06:13:58;;;;;;;30.63;13.38;;;6.80;99.90;;;;;;4869166;29;20112;-65
2021/11/09 06:16:24;;;;;;;25.05;13.93;;;6.80;99.90;;;;;;4918100;29;20075;-66
2021/11/09 06:18:50;;;;;;;23.88;14.02;;;6.70;99.90;;;;;;4933550;29;20081;-64
2021/11/09 06:21:16;;;;;;;30.77;15.23;;;6.60;99.90;;;;;;4895542;29;20091;-65
2021/11/09 06:23:41;;;;;;;30.52;14.32;;;6.60;99.90;;;;;;4888582;29;20052;-65
2021/11/09 06:26:07;;;;;;;31.83;14.48;;;6.70;99.90;;;;;;4901730;29;20141;-65
2021/11/09 06:28:33;;;;;;;31.80;14.57;;;6.60;99.90;;;;;;4896099;29;20052;-66
2021/11/09 06:30:59;;;;;;;29.52;15.05;;;6.60;99.90;;;;;;4899116;29;20059;-65
2021/11/09 06:33:25;;;;;;;30.00;14.15;;;6.50;99.90;;;;;;4914455;29;20048;-66
2021/11/09 06:35:51;;;;;;;33.92;15.63;;;6.50;99.90;;;;;;4913750;29;20114;-66
2021/11/09 06:38:18;;;;;;;32.30;14.55;;;6.60;99.90;;;;;;4933178;29;20152;-66
2021/11/09 06:40:44;;;;;;;29.67;15.05;;;6.40;99.90;;;;;;4915109;29;20505;-66
2021/11/09 06:43:10;;;;;;;31.15;14.00;;;6.40;99.90;;;;;;4918354;29;20048;-66
2021/11/09 06:45:36;;;;;;;28.25;16.02;;;6.40;99.90;;;;;;4895793;29;20103;-66
2021/11/09 06:48:03;;;;;;;30.38;15.45;;;6.50;99.90;;;;;;4933338;29;20051;-66
2021/11/09 06:50:29;;;;;;;27.27;14.00;;;6.40;99.90;;;;;;4894185;29;20135;-66
2021/11/09 06:52:55;;;;;;;40.72;15.32;;;6.40;99.90;;;;;;4918692;29;20060;-66
2021/11/09 06:55:20;;;;;;;26.45;15.35;;;6.40;99.90;;;;;;4932283;29;20076;-66
2021/11/09 06:57:47;;;;;;;25.98;14.07;;;6.40;99.90;;;;;;4917612;29;20350;-66
2021/11/09 07:00:19;;;;;;;29.60;14.05;;;6.60;99.90;;;;;;4919858;29;20047;-66
2021/11/09 07:02:45;;;;;;;25.05;12.98;;;6.60;99.90;;;;;;4910347;29;20087;-65
2021/11/09 07:05:12;;;;;;;25.95;13.68;;;6.70;99.90;;;;;;4921777;29;20059;-66
2021/11/09 07:07:40;;;;;;;28.85;15.00;;;6.70;99.90;;;;;;4925518;29;20054;-67
2021/11/09 07:10:07;;;;;;;34.55;14.18;;;6.60;99.90;;;;;;4931744;29;20338;-66
2021/11/09 07:12:33;;;;;;;27.23;13.40;;;6.60;99.90;;;;;;4897807;29;20079;-66
2021/11/09 07:14:59;;;;;;;27.08;14.13;;;6.60;99.90;;;;;;4932654;29;20056;-66
2021/11/09 07:17:25;;;;;;;31.00;13.73;;;6.70;99.90;;;;;;4905689;29;20059;-67
2021/11/09 07:19:51;;;;;;;34.38;14.23;;;6.70;99.90;;;;;;4901380;29;20037;-66
2021/11/09 07:22:23;;;;;;;29.02;14.95;;;6.60;99.90;;;;;;4907186;29;20051;-66
2021/11/09 07:24:49;;;;;;;31.35;15.93;;;6.60;99.90;;;;;;4886255;29;20255;-67
2021/11/09 07:27:16;;;;;;;34.92;15.82;;;6.60;99.90;;;;;;4923695;29;20059;-67
2021/11/09 07:29:47;;;;;;;34.00;16.13;;;6.60;99.90;;;;;;4900478;29;20055;-68
2021/11/09 07:32:15;;;;;;;37.33;16.15;;;6.60;99.90;;;;;;4917764;29;20269;-67
2021/11/09 07:34:41;;;;;;;34.40;15.85;;;6.70;99.90;;;;;;4903225;29;20044;-69
2021/11/09 07:37:06;;;;;;;29.83;14.90;;;6.70;99.90;;;;;;4906440;29;20138;-69
2021/11/09 07:39:33;;;;;;;29.05;15.20;;;6.50;99.90;;;;;;4908791;29;20045;-68
2021/11/09 07:41:58;;;;;;;36.75;16.05;;;6.50;99.90;;;;;;4906338;29;20043;-68
2021/11/09 07:44:24;;;;;;;30.50;15.00;;;6.60;99.90;;;;;;4905945;29;20049;-68
2021/11/09 07:46:50;;;;;;;28.20;14.57;;;6.60;99.90;;;;;;4911004;29;20054;-68
2021/11/09 07:49:16;;;;;;;29.58;15.50;;;6.80;99.90;;;;;;4905668;29;20052;-68
2021/11/09 07:51:42;;;;;;;26.52;13.90;;;6.70;99.90;;;;;;4887346;29;20052;-68
2021/11/09 07:54:08;;;;;;;32.38;15.50;;;6.70;99.90;;;;;;4915704;29;20044;-68
2021/11/09 07:56:37;;;;;;;30.63;16.67;;;6.60;99.90;;;;;;4907790;29;20051;-65
2021/11/09 08:06:44;;;;;;;28.85;15.73;;;6.90;99.90;;;;;;4901375;29;20055;-67
2021/11/09 08:11:45;;;;;;;27.02;15.60;;;7.00;99.90;;;;;;4900440;29;20051;-69
2021/11/09 08:14:12;;;;;;;28.33;17.20;;;6.90;99.90;;;;;;4894007;29;20092;-68
2021/11/09 08:16:38;;;;;;;33.45;16.80;;;7.00;99.90;;;;;;4899795;29;20059;-68
2021/11/09 08:19:05;;;;;;;32.95;15.02;;;7.00;99.90;;;;;;4907197;29;20048;-68
2021/11/09 08:21:32;;;;;;;31.35;16.13;;;7.10;99.90;;;;;;4897945;29;20115;-68
2021/11/09 08:23:58;;;;;;;32.40;16.75;;;7.00;99.90;;;;;;4910816;29;20048;-69
2021/11/09 08:26:26;;;;;;;36.97;15.40;;;7.10;99.90;;;;;;4904707;29;20055;-69
2021/11/09 08:28:54;;;;;;;30.50;14.88;;;7.10;99.90;;;;;;4914279;29;20053;-68
2021/11/09 08:31:22;;;;;;;29.10;16.33;;;7.20;99.90;;;;;;4924937;29;20147;-69
2021/11/09 08:33:49;;;;;;;33.53;15.05;;;7.20;99.90;;;;;;4908612;29;20071;-68
2021/11/09 08:36:21;;;;;;;32.35;14.88;;;7.30;99.90;;;;;;4900854;29;20162;-69
2021/11/09 08:38:46;;;;;;;29.83;14.32;;;7.50;99.90;;;;;;4913017;29;20572;-69
2021/11/09 08:41:12;;;;;;;34.50;16.33;;;7.40;99.90;;;;;;4927382;29;20048;-69
2021/11/09 08:43:41;;;;;;;29.95;15.45;;;7.50;99.90;;;;;;4895534;29;20044;-68
2021/11/09 08:46:19;;;;;;;30.75;15.55;;;7.50;99.90;;;;;;4896174;29;20055;-68
2021/11/09 08:48:48;;;;;;;28.13;14.73;;;7.60;99.90;;;;;;4914075;29;20091;-68
2021/11/09 08:51:16;;;;;;;28.17;15.23;;;7.70;99.90;;;;;;4898642;29;20118;-68
2021/11/09 08:54:27;;;;;;;30.02;14.55;;;7.60;99.90;;;;;;4914596;29;20154;-68
2021/11/09 09:04:11;;;;;;;28.02;14.90;;;7.90;99.90;;;;;;4923410;29;20052;-68
2021/11/09 09:04:40;;;;;;;24.63;14.40;;;7.90;99.90;;;;;;4895837;29;20057;-68
2021/11/09 09:07:05;;;;;;;34.20;16.77;;;8.00;99.90;;;;;;4904029;29;20115;-69
2021/11/09 09:09:32;;;;;;;26.48;13.73;;;8.10;99.90;;;;;;4910412;29;20104;-68
2021/11/09 09:11:58;;;;;;;29.38;14.80;;;8.10;99.90;;;;;;4928616;29;20620;-68
2021/11/09 09:14:25;;;;;;;26.33;13.65;;;8.20;99.90;;;;;;4891055;29;20517;-68
2021/11/09 09:16:53;;;;;;;26.70;14.77;;;8.30;99.90;;;;;;4928237;29;20048;-68
2021/11/09 09:19:24;;;;;;;27.05;13.90;;;8.30;99.90;;;;;;4888212;29;20139;-69
2021/11/09 09:21:56;;;;;;;28.52;13.60;;;8.30;99.90;;;;;;4885857;29;20047;-68
2021/11/09 09:30:15;;;;;;;34.47;15.90;;;8.70;99.90;;;;;;4906275;29;20060;-69
2021/11/09 09:52:18;;;;;;;30.40;14.57;;;9.10;99.90;;;;;;4899881;29;20048;-68
2021/11/09 09:55:01;;;;;;;28.77;15.27;;;9.10;99.90;;;;;;4905718;29;20112;-68
2021/11/09 09:57:28;;;;;;;33.35;15.68;;;9.20;99.90;;;;;;4924983;29;20131;-69
2021/11/09 09:59:55;;;;;;;32.97;15.45;;;9.10;99.90;;;;;;4916591;29;20072;-70
2021/11/09 10:02:25;;;;;;;27.60;13.82;;;9.10;99.90;;;;;;4925445;29;20043;-69
2021/11/09 10:04:57;;;;;;;36.53;14.70;;;9.20;99.90;;;;;;4933024;29;20135;-69
2021/11/09 10:07:39;;;;;;;31.23;14.77;;;9.20;99.90;;;;;;4904465;29;20060;-69
2021/11/09 10:10:10;;;;;;;29.63;13.88;;;9.40;99.90;;;;;;4907293;29;20057;-69
2021/11/09 10:12:40;;;;;;;31.23;13.55;;;9.50;99.90;;;;;;4904884;29;20270;-69
2021/11/09 10:15:20;;;;;;;29.77;13.88;;;9.50;99.90;;;;;;4892631;29;20457;-69
2021/11/09 10:17:53;;;;;;;31.38;13.00;;;9.60;99.90;;;;;;4913440;29;20083;-69
2021/11/09 10:20:21;;;;;;;31.20;14.43;;;9.80;99.90;;;;;;4903012;29;20106;-69
2021/11/09 10:23:03;;;;;;;28.67;13.32;;;9.80;99.90;;;;;;4915010;29;20059;-68
2021/11/09 10:25:29;;;;;;;29.13;13.65;;;9.90;99.90;;;;;;4904468;29;20123;-69
2021/11/09 10:28:07;;;;;;;26.70;13.20;;;10.00;99.90;;;;;;4905661;29;20084;-69
2021/11/09 10:30:36;;;;;;;28.48;14.02;;;10.20;99.90;;;;;;4903975;29;20079;-69
2021/11/09 10:33:03;;;;;;;24.13;11.93;;;10.10;99.90;;;;;;4919600;29;20464;-68
2021/11/09 10:35:30;;;;;;;32.55;13.25;;;10.30;99.90;;;;;;4905175;29;20459;-69
2021/11/09 10:38:03;;;;;;;28.77;14.02;;;10.10;99.90;;;;;;4916453;29;20055;-69
2021/11/09 10:40:33;;;;;;;29.58;14.32;;;10.20;99.90;;;;;;4906418;29;20048;-69
2021/11/09 10:43:04;;;;;;;22.60;11.85;;;10.20;99.90;;;;;;4925400;29;20676;-69
2021/11/09 10:45:33;;;;;;;25.50;12.20;;;10.30;99.90;;;;;;4900082;29;20045;-69
2021/11/09 10:48:03;;;;;;;29.98;12.82;;;10.20;99.90;;;;;;4903492;29;20051;-68
2021/11/09 10:50:36;;;;;;;21.30;11.98;;;10.40;99.90;;;;;;4899935;29;20052;-68
2021/11/09 11:04:35;;;;;;;25.80;11.80;;;10.80;99.90;;;;;;4889266;29;20080;-69
2021/11/09 11:07:06;;;;;;;27.05;11.75;;;11.00;99.90;;;;;;4860287;29;20084;-69
2021/11/09 11:09:32;;;;;;;27.50;12.80;;;11.00;99.90;;;;;;4888901;29;20045;-70
2021/11/09 11:12:06;;;;;;;20.45;11.90;;;11.10;99.90;;;;;;4857673;29;20080;-69
2021/11/09 11:14:32;;;;;;;25.52;11.35;;;11.10;99.90;;;;;;4878827;29;20048;-69
2021/11/09 11:17:04;;;;;;;27.48;11.68;;;11.20;99.90;;;;;;4873133;29;20104;-69
2021/11/09 11:19:46;;;;;;;27.48;11.95;;;11.50;99.90;;;;;;5145789;27;1262362;-68
2021/11/09 11:22:19;;;;;;;27.67;12.48;;;11.60;99.90;;;;;;5131078;27;20079;-67
2021/11/09 11:24:46;;;;;;;27.83;11.82;;;11.50;99.90;;;;;;5097214;28;20048;-68
2021/11/09 11:27:13;;;;;;;26.45;12.50;;;11.50;99.90;;;;;;5105251;28;20109;-67
2021/11/09 11:29:40;;;;;;;23.75;11.20;;;11.70;99.90;;;;;;5105785;28;20510;-67
2021/11/09 11:32:09;;;;;;;27.13;11.85;;;11.80;99.90;;;;;;5100388;28;20051;-67
2021/11/09 11:34:35;;;;;;;24.92;12.98;;;11.80;99.90;;;;;;5109204;28;20047;-68
2021/11/09 11:37:02;;;;;;;26.15;12.30;;;11.70;99.90;;;;;;5086499;28;20184;-68
2021/11/09 11:39:30;;;;;;;25.95;11.35;;;11.60;99.90;;;;;;5113824;28;20158;-68
2021/11/09 11:41:59;;;;;;;21.42;11.75;;;11.70;99.90;;;;;;5102763;28;20043;-67
2021/11/09 11:44:26;;;;;;;25.25;11.45;;;11.50;99.90;;;;;;5085043;28;20072;-67
2021/11/09 11:47:04;;;;;;;22.80;10.48;;;11.60;99.90;;;;;;5082465;28;20464;-68
2021/11/09 11:49:42;;;;;;;23.67;11.60;;;11.50;99.90;;;;;;5100110;28;20743;-67
2021/11/09 11:52:19;;;;;;;25.25;9.43;;;11.50;99.90;;;;;;5081447;28;20478;-67
2021/11/09 11:54:50;;;;;;;26.17;10.52;;;11.70;99.90;;;;;;5096340;28;20039;-68
2021/11/09 11:57:39;;;;;;;23.60;10.55;;;11.60;99.90;;;;;;5085487;28;20051;-68
2021/11/09 12:00:23;;;;;;;26.73;10.83;;;11.50;99.90;;;;;;5088725;28;20287;-68
2021/11/09 12:02:49;;;;;;;25.08;10.57;;;11.50;99.90;;;;;;5078903;28;20476;-68
2021/11/09 12:05:38;;;;;;;20.92;9.75;;;11.60;99.90;;;;;;5093072;28;20051;-69
2021/11/09 12:08:05;;;;;;;21.33;10.13;;;11.80;99.90;;;;;;5074823;28;20048;-68
2021/11/09 12:10:57;;;;;;;24.30;10.45;;;11.70;99.90;;;;;;5074017;28;20779;-67
2021/11/09 12:13:23;;;;;;;25.17;9.57;;;11.70;99.90;;;;;;5082681;28;20058;-68
2021/11/09 12:15:57;;;;;;;24.88;9.82;;;11.90;99.90;;;;;;5106987;28;20046;-67
2021/11/09 12:18:29;;;;;;;24.35;9.57;;;11.90;99.90;;;;;;5117015;28;20435;-67
2021/11/09 12:21:00;;;;;;;19.52;8.27;;;11.70;99.90;;;;;;5110038;28;20413;-68
2021/11/09 12:23:27;;;;;;;19.58;8.75;;;11.60;99.90;;;;;;5101030;28;20111;-67
2021/11/09 12:25:53;;;;;;;17.48;8.77;;;11.50;99.90;;;;;;5111507;28;20565;-67
2021/11/09 12:28:36;;;;;;;18.92;8.48;;;11.60;99.90;;;;;;5102014;27;20063;-67
2021/11/09 12:31:13;;;;;;;18.15;8.40;;;11.60;99.90;;;;;;5090309;28;20124;-67
2021/11/09 12:33:47;;;;;;;17.60;8.18;;;11.70;99.90;;;;;;5077267;28;20078;-67
2021/11/09 12:36:20;;;;;;;21.23;8.93;;;11.70;99.90;;;;;;5096744;28;20103;-67
2021/11/09 12:38:51;;;;;;;23.38;9.52;;;11.90;99.90;;;;;;5088863;28;20052;-67
2021/11/09 12:41:20;;;;;;;22.95;8.75;;;11.80;99.90;;;;;;5092842;28;20070;-67
2021/11/09 12:43:58;;;;;;;24.42;9.60;;;11.80;99.90;;;;;;5070379;28;20063;-67
2021/11/09 12:49:00;;;;;;;25.90;11.15;;;11.90;99.90;;;;;;5091170;28;20082;-67
2021/11/09 12:51:26;;;;;;;23.88;10.90;;;12.30;99.90;;;;;;5097268;28;20055;-67
2021/11/09 12:53:54;;;;;;;24.20;10.75;;;12.30;99.90;;;;;;5079808;28;20067;-68
2021/11/09 12:56:37;;;;;;;22.60;11.02;;;12.20;99.90;;;;;;5094418;28;20101;-67
2021/11/09 12:59:12;;;;;;;23.95;11.45;;;12.10;99.90;;;;;;5079873;28;20439;-67
2021/11/09 13:09:31;;;;;;;20.92;10.95;;;11.90;99.90;;;;;;5086301;28;20074;-67
2021/11/09 13:11:57;;;;;;;27.33;11.88;;;11.80;99.90;;;;;;5096635;28;20051;-72
2021/11/09 13:14:32;;;;;;;28.67;10.98;;;11.90;99.90;;;;;;5086592;28;20055;-67
2021/11/09 13:16:58;;;;;;;26.77;11.07;;;11.80;99.90;;;;;;5117237;28;20147;-67
2021/11/09 13:19:26;;;;;;;26.52;11.18;;;11.60;99.90;;;;;;5090755;27;20078;-67
2021/11/09 13:22:15;;;;;;;22.45;11.02;;;11.60;99.90;;;;;;5116555;28;20111;-67
2021/11/09 13:24:54;;;;;;;19.52;9.98;;;11.60;99.90;;;;;;5066538;28;20047;-67
2021/11/09 13:27:20;;;;;;;24.13;10.30;;;11.60;99.90;;;;;;5076347;28;20046;-67
2021/11/09 13:29:49;;;;;;;24.75;11.05;;;11.70;99.90;;;;;;5087530;28;20048;-68
2021/11/09 13:32:16;;;;;;;26.13;10.88;;;11.80;99.90;;;;;;5081112;28;20351;-67
2021/11/09 13:34:42;;;;;;;28.52;10.77;;;11.70;99.90;;;;;;5091258;28;20478;-67
2021/11/09 13:37:09;;;;;;;23.17;10.35;;;11.80;99.90;;;;;;5077297;28;20518;-67
2021/11/09 13:39:35;;;;;;;22.90;9.45;;;11.80;99.90;;;;;;5099768;28;20047;-68
2021/11/09 13:42:01;;;;;;;25.08;10.70;;;11.70;99.90;;;;;;5098561;28;20047;-67
2021/11/09 13:44:34;;;;;;;17.92;9.45;;;11.70;99.90;;;;;;5057613;28;20056;-67
2021/11/09 13:47:00;;;;;;;22.35;9.27;;;11.80;99.90;;;;;;5090580;28;20109;-67
2021/11/09 13:49:26;;;;;;;20.38;9.27;;;11.90;99.90;;;;;;5074088;28;20116;-67
2021/11/09 13:51:59;;;;;;;23.17;9.63;;;11.90;99.90;;;;;;5087654;28;20079;-67
2021/11/09 13:54:31;;;;;;;25.08;9.60;;;11.70;99.90;;;;;;5102536;27;20131;-67
2021/11/09 13:56:59;;;;;;;30.73;10.98;;;11.80;99.90;;;;;;5111098;27;20459;-67
2021/11/09 13:59:36;;;;;;;18.02;8.93;;;11.90;99.90;;;;;;5085967;28;20063;-67
2021/11/09 14:02:35;;;;;;;23.33;9.90;;;11.70;99.90;;;;;;5094660;28;20062;-67
2021/11/09 14:08:07;;;;;;;24.17;9.70;;;11.80;99.90;;;;;;5091143;27;20074;-67
2021/11/09 14:18:31;;;;;;;19.65;9.65;;;11.60;99.90;;;;;;5097212;27;20100;-65
2021/11/09 14:21:05;;;;;;;24.65;9.27;;;11.60;99.90;;;;;;5113844;28;20103;-65
2021/11/09 14:23:38;;;;;;;22.58;9.40;;;11.60;99.90;;;;;;5108476;27;20173;-65
2021/11/09 14:26:18;;;;;;;24.48;10.27;;;11.80;99.90;;;;;;5105888;27;20036;-66
2021/11/09 14:28:44;;;;;;;25.08;10.60;;;11.70;99.90;;;;;;5100123;27;20051;-66
2021/11/09 14:31:26;;;;;;;20.65;9.63;;;11.80;99.90;;;;;;5102331;27;20059;-66
2021/11/09 14:34:10;;;;;;;23.42;9.88;;;11.70;99.90;;;;;;5102388;27;20184;-65
2021/11/09 14:36:36;;;;;;;23.80;9.85;;;12.00;99.90;;;;;;5095873;28;20071;-66
2021/11/09 14:39:07;;;;;;;17.23;8.65;;;12.10;99.90;;;;;;5105464;27;20627;-65
2021/11/09 14:41:39;;;;;;;25.30;9.57;;;12.00;99.90;;;;;;5093416;28;20055;-65
2021/11/09 14:44:06;;;;;;;21.67;9.80;;;11.80;99.90;;;;;;5116053;27;20530;-65
2021/11/09 14:46:41;;;;;;;20.60;9.38;;;12.00;99.90;;;;;;5078736;28;20048;-66
2021/11/09 14:49:10;;;;;;;23.55;10.18;;;12.00;99.90;;;;;;5113413;27;20071;-65
2021/11/09 14:51:36;;;;;;;20.43;9.00;;;12.00;99.90;;;;;;5096640;28;20048;-66
2021/11/09 14:56:36;;;;;;;20.60;8.27;;;12.20;99.90;;;;;;5098932;28;20053;-66
2021/11/09 14:59:07;;;;;;;17.15;7.30;;;12.30;99.90;;;;;;5114064;27;20055;-66
2021/11/09 15:02:02;;;;;;;16.58;7.65;;;12.10;99.90;;;;;;5095097;28;20060;-66
2021/11/09 15:04:47;;;;;;;23.25;7.65;;;12.10;99.90;;;;;;5102411;27;20062;-66
2021/11/09 15:07:19;;;;;;;21.33;8.13;;;12.00;99.90;;;;;;5094753;28;20040;-65
2021/11/09 15:29:08;;;;;;;18.33;7.03;;;11.90;99.90;;;;;;5097326;28;20056;-65
2021/11/09 15:34:20;;;;;;;17.73;6.65;;;11.70;99.90;;;;;;5090139;28;20053;-65
2021/11/09 15:39:21;;;;;;;19.15;7.22;;;11.60;99.90;;;;;;5109550;28;20043;-65
2021/11/09 15:41:46;;;;;;;19.10;7.07;;;11.60;99.90;;;;;;5102016;28;20051;-65
2021/11/09 15:44:14;;;;;;;19.88;7.28;;;11.50;99.90;;;;;;5095579;28;20077;-65
2021/11/09 15:46:40;;;;;;;18.27;7.05;;;11.30;99.90;;;;;;5109886;28;20047;-65
2021/11/09 15:49:08;;;;;;;15.60;6.45;;;11.40;99.90;;;;;;5112316;28;20107;-65
2021/11/09 15:51:34;;;;;;;21.38;6.70;;;11.50;99.90;;;;;;5109859;28;20052;-65
2021/11/09 15:53:59;;;;;;;19.77;6.93;;;11.50;99.90;;;;;;5099499;28;20063;-65
2021/11/09 15:56:25;;;;;;;18.75;6.72;;;11.60;99.90;;;;;;5100619;28;20050;-65
2021/11/09 15:58:53;;;;;;;18.42;6.90;;;11.60;99.90;;;;;;5101594;28;20359;-65
2021/11/09 16:01:19;;;;;;;20.67;7.88;;;11.60;99.90;;;;;;5101901;28;20123;-65
2021/11/09 16:03:45;;;;;;;19.73;6.88;;;11.60;99.90;;;;;;5086406;28;20898;-65